Time;durP1;ratioP1;P1;durP2;ratioP2;P2;SDS_P1;SDS_P2;PMS_P1;PMS_P2;Temp;Humidity;BMP_temperature;BMP_pressure;BME280_temperature;BME280_humidity;BME280_pressure;Samples;Min_cycle;Max_cycle;Signal;HPM_P1;HPM_P2
2023/10/19 00:02:12;;;;;;;0.00;0.00;;;;;;;12.74;100.00;97389.00;4944616;28;20154;-74
2023/10/19 00:04:39;;;;;;;0.00;0.00;;;;;;;12.82;100.00;97397.38;4945720;28;20028;-75
2023/10/19 00:07:07;;;;;;;0.00;0.00;;;;;;;12.85;100.00;97400.25;4947559;28;20097;-76
2023/10/19 00:09:37;;;;;;;0.00;0.00;;;;;;;12.86;100.00;97385.34;4921483;29;20043;-75
2023/10/19 00:12:08;;;;;;;0.00;0.00;;;;;;;12.92;100.00;97383.13;4945587;28;20907;-75
2023/10/19 00:14:35;;;;;;;0.00;0.00;;;;;;;12.90;100.00;97374.47;4927765;29;20042;-75
2023/10/19 00:17:05;;;;;;;0.00;0.00;;;;;;;12.94;100.00;97372.63;4945824;28;20032;-74
2023/10/19 00:19:31;;;;;;;0.00;0.00;;;;;;;12.95;100.00;97387.13;4947963;28;20031;-75
2023/10/19 00:22:01;;;;;;;0.00;0.00;;;;;;;12.92;100.00;97377.66;4947800;28;20050;-74
2023/10/19 00:24:27;;;;;;;0.00;0.00;;;;;;;12.93;100.00;97382.00;4944925;28;20478;-74
2023/10/19 00:26:54;;;;;;;0.00;0.00;;;;;;;12.92;100.00;97378.47;4949467;28;20035;-75
2023/10/19 00:29:40;;;;;;;0.00;0.00;;;;;;;12.91;100.00;97378.81;4945768;28;20041;-75
2023/10/19 00:32:07;;;;;;;0.00;0.00;;;;;;;12.91;100.00;97367.84;4939173;29;20082;-75
2023/10/19 00:34:38;;;;;;;0.00;0.00;;;;;;;12.95;100.00;97365.97;4963033;28;20078;-75
2023/10/19 00:37:07;;;;;;;0.00;0.00;;;;;;;12.96;100.00;97367.56;4954356;28;20114;-74
2023/10/19 00:39:43;;;;;;;0.00;0.00;;;;;;;12.93;100.00;97362.81;4933926;28;20039;-75
2023/10/19 00:42:08;;;;;;;0.00;0.00;;;;;;;12.99;100.00;97369.59;4955495;28;20191;-75
2023/10/19 00:44:48;;;;;;;0.00;0.00;;;;;;;12.98;100.00;97365.28;4960873;28;20102;-75
2023/10/19 00:47:18;;;;;;;0.00;0.00;;;;;;;13.03;100.00;97366.94;4955001;28;20042;-75
2023/10/19 00:49:48;;;;;;;0.00;0.00;;;;;;;13.03;100.00;97362.25;4942121;28;20086;-75
2023/10/19 00:52:23;;;;;;;0.00;0.00;;;;;;;13.07;100.00;97362.34;4953173;28;20398;-75
2023/10/19 00:57:22;;;;;;;0.00;0.00;;;;;;;13.17;100.00;97350.81;4943204;29;20055;-75
2023/10/19 00:59:49;;;;;;;0.00;0.00;;;;;;;13.23;100.00;97354.06;4941285;28;20378;-76
2023/10/19 01:02:28;;;;;;;0.00;0.00;;;;;;;13.29;100.00;97358.13;4945719;28;20462;-75
2023/10/19 01:05:00;;;;;;;0.00;0.00;;;;;;;13.30;100.00;97348.72;4944152;28;20419;-75
2023/10/19 01:07:27;;;;;;;0.00;0.00;;;;;;;13.31;100.00;97338.56;4949096;28;20031;-74
2023/10/19 01:10:02;;;;;;;0.00;0.00;;;;;;;13.39;100.00;97335.63;4946983;28;20556;-75
2023/10/19 01:12:33;;;;;;;0.00;0.00;;;;;;;13.42;100.00;97340.41;4945664;28;20110;-73
2023/10/19 01:17:56;;;;;;;0.00;0.00;;;;;;;13.55;100.00;97353.97;4947589;28;20031;-75
2023/10/19 01:25:47;;;;;;;0.00;0.00;;;;;;;13.73;100.00;97352.41;4933419;28;20118;-74
2023/10/19 01:28:16;;;;;;;0.00;0.00;;;;;;;13.78;100.00;97352.13;4949351;28;20039;-73
2023/10/19 01:30:44;;;;;;;0.00;0.00;;;;;;;13.86;100.00;97355.00;4940678;28;20039;-75
2023/10/19 01:33:12;;;;;;;0.00;0.00;;;;;;;13.96;100.00;97357.94;4946792;28;20441;-73
2023/10/19 01:38:23;;;;;;;0.00;0.00;;;;;;;14.12;100.00;97343.34;4949799;28;20370;-75
2023/10/19 01:40:51;;;;;;;0.00;0.00;;;;;;;14.22;100.00;97347.41;4949142;28;20034;-74
2023/10/19 01:43:25;;;;;;;0.00;0.00;;;;;;;14.29;100.00;97353.03;4952541;28;20027;-74
2023/10/19 01:45:55;;;;;;;0.00;0.00;;;;;;;14.34;100.00;97341.75;4949855;28;20027;-73
2023/10/19 01:48:31;;;;;;;0.00;0.00;;;;;;;14.44;100.00;97337.56;4941756;28;20016;-76
2023/10/19 01:50:57;;;;;;;0.00;0.00;;;;;;;14.49;100.00;97329.81;4948017;28;20042;-74
2023/10/19 01:53:25;;;;;;;0.00;0.00;;;;;;;14.58;100.00;97323.28;4937472;28;20379;-74
2023/10/19 01:55:57;;;;;;;0.00;0.00;;;;;;;14.63;100.00;97323.00;4948682;28;20023;-74
2023/10/19 01:58:24;;;;;;;0.00;0.00;;;;;;;14.63;100.00;97307.31;4940877;29;20038;-74
2023/10/19 02:00:55;;;;;;;0.00;0.00;;;;;;;14.72;100.00;97315.31;4948675;28;20107;-75
2023/10/19 02:03:24;;;;;;;0.00;0.00;;;;;;;14.75;100.00;97302.78;4940770;28;20058;-74
2023/10/19 02:05:58;;;;;;;0.00;0.00;;;;;;;14.75;100.00;97300.81;4931236;28;20038;-75
2023/10/19 02:08:26;;;;;;;0.00;0.00;;;;;;;14.81;100.00;97296.56;4940696;28;20801;-75
2023/10/19 02:10:52;;;;;;;0.00;0.00;;;;;;;14.86;100.00;97300.94;4943573;28;20035;-75
2023/10/19 02:13:19;;;;;;;0.00;0.00;;;;;;;14.88;100.00;97292.31;4938804;28;20031;-74
2023/10/19 02:15:47;;;;;;;0.00;0.00;;;;;;;14.88;100.00;97289.56;4948197;28;20462;-75
2023/10/19 02:18:12;;;;;;;0.00;0.00;;;;;;;14.92;100.00;97284.91;4935453;28;20030;-75
2023/10/19 02:20:41;;;;;;;0.00;0.00;;;;;;;14.94;100.00;97277.88;4944617;28;20039;-75
2023/10/19 02:23:07;;;;;;;0.00;0.00;;;;;;;14.97;100.00;97287.38;4945563;28;20059;-75
2023/10/19 02:25:36;;;;;;;0.00;0.00;;;;;;;15.01;100.00;97277.22;4925894;28;20038;-74
2023/10/19 02:28:09;;;;;;;0.00;0.00;;;;;;;15.05;100.00;97283.53;4944495;28;20438;-75
2023/10/19 02:30:35;;;;;;;0.00;0.00;;;;;;;15.03;100.00;97268.59;4936751;28;20027;-75
2023/10/19 02:33:01;;;;;;;0.00;0.00;;;;;;;15.03;100.00;97274.88;4945051;28;20087;-75
2023/10/19 02:35:27;;;;;;;0.00;0.00;;;;;;;14.94;100.00;97266.09;4958431;28;20031;-75
2023/10/19 02:37:53;;;;;;;0.00;0.00;;;;;;;14.89;100.00;97258.16;4944425;28;20031;-75
2023/10/19 02:40:23;;;;;;;0.00;0.00;;;;;;;14.84;100.00;97245.53;4918547;29;20090;-75
2023/10/19 02:42:50;;;;;;;0.00;0.00;;;;;;;14.82;100.00;97251.41;4935264;28;20043;-75
2023/10/19 02:45:16;;;;;;;0.00;0.00;;;;;;;14.75;100.00;97243.03;4948376;28;20030;-74
2023/10/19 02:47:43;;;;;;;0.00;0.00;;;;;;;14.72;100.00;97232.78;4949717;28;21214;-74
2023/10/19 02:50:13;;;;;;;0.00;0.00;;;;;;;14.72;100.00;97232.78;4948760;28;20109;-75
2023/10/19 02:52:40;;;;;;;0.00;0.00;;;;;;;14.75;100.00;97232.03;4946432;28;20035;-74
2023/10/19 02:55:07;;;;;;;0.00;0.00;;;;;;;14.73;100.00;97226.09;4947062;28;20042;-74
2023/10/19 02:57:32;;;;;;;0.00;0.00;;;;;;;14.75;100.00;97225.75;4947803;28;20626;-75
2023/10/19 02:59:59;;;;;;;0.00;0.00;;;;;;;14.75;100.00;97217.50;4926124;28;20031;-75
2023/10/19 03:02:26;;;;;;;0.00;0.00;;;;;;;14.78;100.00;97203.00;4944455;28;20037;-76
2023/10/19 03:04:53;;;;;;;0.00;0.00;;;;;;;14.79;100.00;97201.81;4934309;28;20055;-75
2023/10/19 03:07:19;;;;;;;0.00;0.00;;;;;;;14.79;100.00;97197.13;4933191;28;20032;-76
2023/10/19 03:09:53;;;;;;;0.00;0.00;;;;;;;14.77;100.00;97184.91;4942707;28;20085;-74
2023/10/19 03:12:19;;;;;;;0.00;0.00;;;;;;;14.74;100.00;97186.44;4942291;28;20031;-75
2023/10/19 03:14:48;;;;;;;0.00;0.00;;;;;;;14.79;100.00;97172.38;4943514;28;20470;-75
2023/10/19 03:17:14;;;;;;;0.00;0.00;;;;;;;14.81;100.00;97177.50;4947628;28;20418;-75
2023/10/19 03:19:39;;;;;;;0.00;0.00;;;;;;;14.80;100.00;97164.91;4936318;28;20032;-76
2023/10/19 03:22:08;;;;;;;0.00;0.00;;;;;;;14.86;100.00;97173.63;4926475;28;20054;-75
2023/10/19 03:24:43;;;;;;;0.00;0.00;;;;;;;14.88;100.00;97163.03;4945057;28;20058;-74
2023/10/19 03:27:22;;;;;;;0.00;0.00;;;;;;;14.87;100.00;97158.72;4953730;28;20035;-75
2023/10/19 03:29:55;;;;;;;0.00;0.00;;;;;;;14.88;100.00;97161.09;4927744;28;20027;-75
2023/10/19 03:32:32;;;;;;;0.00;0.00;;;;;;;14.87;100.00;97158.72;4950611;28;20031;-74
2023/10/19 03:34:59;;;;;;;0.00;0.00;;;;;;;14.88;100.00;97154.78;4946835;28;20055;-74
2023/10/19 03:37:29;;;;;;;0.00;0.00;;;;;;;14.84;100.00;97169.28;4941418;28;20438;-74
2023/10/19 03:39:56;;;;;;;0.00;0.00;;;;;;;14.83;100.00;97148.47;4939608;28;20126;-74
2023/10/19 03:42:25;;;;;;;0.00;0.00;;;;;;;14.85;100.00;97153.59;4958315;28;20088;-75
2023/10/19 03:44:53;;;;;;;0.00;0.00;;;;;;;14.85;100.00;97142.59;4947056;28;20493;-75
2023/10/19 03:47:20;;;;;;;0.00;0.00;;;;;;;14.84;100.00;97136.28;4952087;28;20370;-74
2023/10/19 03:49:49;;;;;;;0.00;0.00;;;;;;;14.87;100.00;97132.00;4943987;28;20027;-75
2023/10/19 03:54:41;;;;;;;0.00;0.00;;;;;;;14.83;100.00;97123.72;4939134;28;20039;-74
2023/10/19 03:57:11;;;;;;;0.00;0.00;;;;;;;14.87;100.00;97131.22;4943662;28;20035;-74
2023/10/19 03:59:37;;;;;;;0.00;0.00;;;;;;;14.87;100.00;97142.22;4942339;28;21332;-76
2023/10/19 04:02:12;;;;;;;0.00;0.00;;;;;;;14.82;100.00;97119.38;4955922;28;20032;-74
2023/10/19 04:04:39;;;;;;;0.00;0.00;;;;;;;14.81;100.00;97123.28;4956844;28;20929;-74
2023/10/19 04:07:11;;;;;;;0.00;0.00;;;;;;;14.86;100.00;97113.13;4946909;28;20078;-74
2023/10/19 04:09:56;;;;;;;0.00;0.00;;;;;;;14.84;100.00;97117.03;4943644;28;20027;-74
2023/10/19 04:12:31;;;;;;;0.00;0.00;;;;;;;14.82;100.00;97115.81;4947805;28;20082;-75
2023/10/19 04:14:57;;;;;;;0.00;0.00;;;;;;;14.80;100.00;97101.66;4936796;28;20137;-76
2023/10/19 04:17:23;;;;;;;0.00;0.00;;;;;;;14.77;100.00;97119.69;4947836;28;20058;-74
2023/10/19 04:19:51;;;;;;;0.00;0.00;;;;;;;14.69;100.00;97115.28;4943130;28;20715;-75
2023/10/19 04:22:24;;;;;;;0.00;0.00;;;;;;;14.63;100.00;97105.75;4934931;28;20031;-75
2023/10/19 04:24:50;;;;;;;0.00;0.00;;;;;;;14.50;100.00;97118.94;4945072;28;20055;-76
2023/10/19 04:27:16;;;;;;;0.00;0.00;;;;;;;14.44;100.00;97121.22;4938750;28;20035;-76
2023/10/19 04:29:45;;;;;;;0.00;0.00;;;;;;;14.34;100.00;97127.38;4917668;29;20032;-77
2023/10/19 04:32:13;;;;;;;0.00;0.00;;;;;;;14.31;100.00;97125.38;4944327;28;20035;-75
2023/10/19 04:34:39;;;;;;;0.00;0.00;;;;;;;14.28;100.00;97131.56;4940614;28;20482;-77
2023/10/19 04:37:06;;;;;;;0.00;0.00;;;;;;;14.22;100.00;97122.06;4948331;28;20034;-77
2023/10/19 04:39:31;;;;;;;0.00;0.00;;;;;;;14.19;100.00;97125.56;4945461;28;20406;-78
2023/10/19 04:41:57;;;;;;;0.00;0.00;;;;;;;14.19;100.00;97111.81;4942597;29;20102;-78
2023/10/19 04:44:22;;;;;;;0.00;0.00;;;;;;;14.17;100.00;97112.19;4926526;28;20043;-77
2023/10/19 04:46:48;;;;;;;0.00;0.00;;;;;;;14.13;100.00;97119.59;4946514;28;20419;-76
2023/10/19 04:49:14;;;;;;;0.00;0.00;;;;;;;14.08;100.00;97106.97;4941761;28;20074;-76
2023/10/19 04:51:39;;;;;;;0.00;0.00;;;;;;;14.08;100.00;97108.94;4946299;28;20062;-76
2023/10/19 04:54:08;;;;;;;0.00;0.00;;;;;;;14.10;100.00;97110.13;4932936;28;20570;-77
2023/10/19 04:56:35;;;;;;;0.00;0.00;;;;;;;14.12;100.00;97118.03;4952857;28;20023;-76
2023/10/19 04:59:02;;;;;;;0.00;0.00;;;;;;;14.03;100.00;97093.56;4942172;28;20035;-77
2023/10/19 05:01:28;;;;;;;0.00;0.00;;;;;;;14.08;100.00;97106.97;4944807;28;20663;-76
2023/10/19 05:03:56;;;;;;;0.00;0.00;;;;;;;14.10;100.00;97101.88;4948882;28;20045;-76
2023/10/19 05:06:22;;;;;;;0.00;0.00;;;;;;;14.16;100.00;97101.56;4926632;28;20028;-76
2023/10/19 05:08:48;;;;;;;0.00;0.00;;;;;;;14.21;100.00;97109.50;4949835;28;20031;-76
2023/10/19 05:11:13;;;;;;;0.00;0.00;;;;;;;14.25;100.00;97115.84;4946785;28;20078;-75
2023/10/19 05:13:39;;;;;;;0.00;0.00;;;;;;;14.29;100.00;97111.19;4940065;28;20032;-76
2023/10/19 05:16:04;;;;;;;0.00;0.00;;;;;;;14.30;100.00;97096.28;4951561;28;20482;-76
2023/10/19 05:18:30;;;;;;;0.00;0.00;;;;;;;14.35;100.00;97104.19;4938538;28;20371;-75
2023/10/19 05:20:56;;;;;;;0.00;0.00;;;;;;;14.36;100.00;97105.78;4947325;28;20118;-76
2023/10/19 05:23:23;;;;;;;0.00;0.00;;;;;;;14.41;100.00;97097.22;4946109;28;20119;-75
2023/10/19 05:25:52;;;;;;;0.00;0.00;;;;;;;14.46;100.00;97102.38;4943207;28;20041;-75
2023/10/19 05:28:18;;;;;;;0.00;0.00;;;;;;;14.47;100.00;97100.41;4934379;29;20042;-74
2023/10/19 05:30:44;;;;;;;0.00;0.00;;;;;;;14.46;100.00;97093.34;4935223;28;20069;-74
2023/10/19 05:33:12;;;;;;;0.00;0.00;;;;;;;14.50;100.00;97099.69;4943535;29;20036;-77
2023/10/19 05:35:40;;;;;;;0.00;0.00;;;;;;;14.46;100.00;97094.13;4959467;28;20166;-75
2023/10/19 05:38:07;;;;;;;0.00;0.00;;;;;;;14.39;100.00;97094.03;4944911;28;20180;-75
2023/10/19 05:40:33;;;;;;;0.00;0.00;;;;;;;14.32;100.00;97083.75;4942533;28;20031;-74
2023/10/19 05:43:02;;;;;;;0.00;0.00;;;;;;;14.26;100.00;97073.47;4946425;28;20501;-74
2023/10/19 05:45:28;;;;;;;0.00;0.00;;;;;;;14.28;100.00;97082.91;4947446;28;20057;-74
2023/10/19 05:47:57;;;;;;;0.00;0.00;;;;;;;14.32;100.00;97082.94;4939847;28;20098;-75
2023/10/19 05:50:23;;;;;;;0.00;0.00;;;;;;;14.29;100.00;97065.28;4944574;28;20497;-74
2023/10/19 05:52:48;;;;;;;0.00;0.00;;;;;;;14.29;100.00;97072.72;4941480;28;20024;-75
2023/10/19 05:55:15;;;;;;;0.00;0.00;;;;;;;14.25;100.00;97069.13;4944697;28;20027;-74
2023/10/19 05:57:40;;;;;;;0.00;0.00;;;;;;;14.24;100.00;97070.31;4947248;28;20027;-75
2023/10/19 06:00:12;;;;;;;0.00;0.00;;;;;;;14.24;100.00;97075.78;4927688;28;20036;-74
2023/10/19 06:02:39;;;;;;;0.00;0.00;;;;;;;14.38;100.00;97083.41;4946665;28;20030;-74
2023/10/19 06:05:12;;;;;;;0.00;0.00;;;;;;;14.33;100.00;97065.31;4948387;28;20051;-77
2023/10/19 06:07:37;;;;;;;0.00;0.00;;;;;;;14.41;100.00;97069.75;4945783;28;20042;-73
2023/10/19 06:10:06;;;;;;;0.00;0.00;;;;;;;14.53;100.00;97087.13;4946206;28;20039;-74
2023/10/19 06:12:32;;;;;;;0.00;0.00;;;;;;;14.52;100.00;97080.84;4946933;28;20489;-73
2023/10/19 06:15:00;;;;;;;0.00;0.00;;;;;;;14.59;100.00;97069.94;4929210;28;20442;-74
2023/10/19 06:17:29;;;;;;;0.00;0.00;;;;;;;14.64;100.00;97071.59;4918501;28;20039;-74
2023/10/19 06:19:55;;;;;;;0.00;0.00;;;;;;;14.63;100.00;97072.75;4953558;28;20095;-71
2023/10/19 06:22:20;;;;;;;0.00;0.00;;;;;;;14.62;100.00;97071.19;4893390;23;20050;-74
2023/10/19 06:24:45;;;;;;;0.00;0.00;;;;;;;14.66;100.00;97074.78;4892117;29;20398;-75
2023/10/19 06:27:11;;;;;;;0.00;0.00;;;;;;;14.68;100.00;97071.66;4911262;29;20059;-75
2023/10/19 06:29:36;;;;;;;0.00;0.00;;;;;;;14.68;100.00;97080.69;4910658;29;20038;-75
2023/10/19 06:32:02;;;;;;;0.00;0.00;;;;;;;14.68;100.00;97083.44;4909523;29;20047;-74
2023/10/19 06:34:28;;;;;;;0.00;0.00;;;;;;;14.67;100.00;97087.34;4888773;29;20020;-75
2023/10/19 06:36:54;;;;;;;0.00;0.00;;;;;;;14.67;100.00;97081.84;4911784;29;20047;-75
2023/10/19 06:39:23;;;;;;;0.00;0.00;;;;;;;14.71;100.00;97104.69;4904074;29;20147;-75
2023/10/19 06:41:49;;;;;;;0.00;0.00;;;;;;;14.63;100.00;97086.50;4909817;29;20031;-75
2023/10/19 06:44:16;;;;;;;0.00;0.00;;;;;;;14.68;100.00;97083.44;4904768;29;20037;-74
2023/10/19 06:46:43;;;;;;;0.00;0.00;;;;;;;14.67;100.00;97092.84;4910393;29;20491;-74
2023/10/19 06:49:09;;;;;;;0.00;0.00;;;;;;;14.67;100.00;97098.34;4888827;29;20036;-73
2023/10/19 06:51:34;;;;;;;0.00;0.00;;;;;;;14.66;100.00;97083.81;4918446;29;20687;-73
2023/10/19 06:54:00;;;;;;;0.00;0.00;;;;;;;14.74;100.00;97092.16;4906084;29;20040;-72
2023/10/19 06:56:26;;;;;;;0.00;0.00;;;;;;;14.73;100.00;97096.84;4889552;29;20047;-74
2023/10/19 06:58:51;;;;;;;0.00;0.00;;;;;;;14.73;100.00;97096.84;4908515;29;20028;-73
2023/10/19 07:01:47;;;;;;;0.00;0.00;;;;;;;14.74;100.00;97090.19;4901815;29;20067;-77
2023/10/19 07:04:13;;;;;;;0.00;0.00;;;;;;;14.61;100.00;97066.81;4905194;29;20028;-78
2023/10/19 07:06:39;;;;;;;0.00;0.00;;;;;;;14.56;100.00;97056.16;4903590;29;20119;-75
2023/10/19 07:09:05;;;;;;;0.00;0.00;;;;;;;14.62;100.00;97074.72;4909331;29;20032;-76
2023/10/19 07:11:33;;;;;;;0.00;0.00;;;;;;;14.47;100.00;97062.75;4904278;29;20040;-77
2023/10/19 07:13:59;;;;;;;0.00;0.00;;;;;;;14.55;100.00;97062.84;4896089;29;20709;-76
2023/10/19 07:16:26;;;;;;;0.00;0.00;;;;;;;14.65;100.00;97081.44;4893026;29;20435;-75
2023/10/19 07:18:52;;;;;;;0.00;0.00;;;;;;;14.64;100.00;97088.88;4908673;29;20035;-76
2023/10/19 07:21:22;;;;;;;0.00;0.00;;;;;;;14.60;100.00;97087.22;4903004;29;20513;-76
2023/10/19 07:23:52;;;;;;;0.00;0.00;;;;;;;14.74;100.00;97073.69;4917198;29;20051;-76
2023/10/19 07:26:19;;;;;;;0.00;0.00;;;;;;;14.72;100.00;97076.03;4908202;29;20718;-75
2023/10/19 07:28:49;;;;;;;0.00;0.00;;;;;;;14.72;100.00;97066.97;4901774;29;20115;-75
2023/10/19 07:31:15;;;;;;;0.00;0.00;;;;;;;14.93;100.00;97085.69;4919915;29;20069;-75
2023/10/19 07:33:51;;;;;;;0.00;0.00;;;;;;;14.89;100.00;97066.38;4916882;29;20168;-75
2023/10/19 07:36:18;;;;;;;0.00;0.00;;;;;;;15.09;100.00;97074.47;4867640;29;20099;-76
2023/10/19 07:38:47;;;;;;;0.00;0.00;;;;;;;15.05;100.00;97060.66;4893789;29;20028;-75
2023/10/19 07:41:13;;;;;;;0.00;0.00;;;;;;;14.96;100.00;97040.91;4921831;29;20019;-75
2023/10/19 07:43:39;;;;;;;0.00;0.00;;;;;;;15.04;100.00;97050.84;4906525;29;20044;-76
2023/10/19 07:46:29;;;;;;;0.00;0.00;;;;;;;15.29;100.00;97077.81;4906533;29;20036;-76
2023/10/19 07:48:57;;;;;;;0.00;0.00;;;;;;;15.37;100.00;97057.41;4911724;29;20043;-74
2023/10/19 07:51:22;;;;;;;0.00;0.00;;;;;;;15.48;100.00;97060.28;4903669;29;20039;-75
2023/10/19 07:53:48;;;;;;;0.00;0.00;;;;;;;15.45;100.00;97048.06;4908279;29;20028;-75
2023/10/19 07:56:13;;;;;;;0.00;0.00;;;;;;;15.57;100.00;97065.47;4900533;29;20063;-75
2023/10/19 07:58:44;;;;;;;0.00;0.00;;;;;;;15.37;100.00;97049.16;4916568;29;20037;-75
2023/10/19 08:01:11;;;;;;;0.00;0.00;;;;;;;15.49;100.00;97070.09;4906351;29;21273;-75
2023/10/19 08:03:51;;;;;;;0.00;0.00;;;;;;;15.96;100.00;97082.31;4915607;28;20056;-74
2023/10/19 08:06:19;;;;;;;0.00;0.00;;;;;;;16.27;100.00;97069.09;4904944;29;20043;-76
2023/10/19 08:08:46;;;;;;;0.00;0.00;;;;;;;16.14;100.00;97054.84;4927874;29;20122;-76
2023/10/19 08:11:12;;;;;;;0.00;0.00;;;;;;;16.51;100.00;97073.16;4925565;29;20040;-76
2023/10/19 08:13:39;;;;;;;0.00;0.00;;;;;;;17.10;100.00;97077.72;4900769;29;20044;-76
2023/10/19 08:16:12;;;;;;;0.00;0.00;;;;;;;17.31;100.00;97062.38;4917057;29;20087;-77
2023/10/19 08:18:39;;;;;;;0.00;0.00;;;;;;;17.90;100.00;97070.28;4918458;29;20075;-76
2023/10/19 08:21:07;;;;;;;0.00;0.00;;;;;;;17.70;100.00;97067.13;4889656;29;20056;-76
2023/10/19 08:23:33;;;;;;;0.00;0.00;;;;;;;17.36;100.00;97070.25;4906381;29;20024;-75
2023/10/19 08:26:08;;;;;;;0.00;0.00;;;;;;;17.38;100.00;97051.34;4909169;29;20035;-76
2023/10/19 08:28:33;;;;;;;0.00;0.00;;;;;;;17.45;100.00;97073.44;4906226;29;20039;-77
2023/10/19 08:31:11;;;;;;;0.00;0.00;;;;;;;17.93;100.00;97062.00;4925843;29;20032;-76
2023/10/19 08:33:41;;;;;;;0.00;0.00;;;;;;;17.16;100.00;97033.97;4887694;29;20028;-77
2023/10/19 08:36:06;;;;;;;0.00;0.00;;;;;;;16.88;100.00;97069.38;4924326;29;20071;-76
2023/10/19 08:38:33;;;;;;;0.00;0.00;;;;;;;16.41;100.00;97073.88;4918420;29;20032;-75
2023/10/19 08:40:59;;;;;;;0.00;0.00;;;;;;;16.28;100.00;97076.22;4895331;29;20066;-74
2023/10/19 08:43:25;;;;;;;0.00;0.00;;;;;;;16.12;100.00;97068.22;4906337;29;20388;-75
2023/10/19 08:45:51;;;;;;;0.00;0.00;;;;;;;15.93;100.00;97072.06;4896603;29;20033;-76
2023/10/19 08:48:20;;;;;;;0.00;0.00;;;;;;;15.96;100.00;97071.28;4896059;29;20039;-75
2023/10/19 08:50:49;;;;;;;0.00;0.00;;;;;;;16.14;100.00;97074.16;4930674;29;20028;-76
2023/10/19 08:53:16;;;;;;;0.00;0.00;;;;;;;16.14;100.00;97076.91;4923787;29;20032;-76
2023/10/19 08:55:41;;;;;;;0.00;0.00;;;;;;;16.17;100.00;97073.38;4907191;29;20537;-76
2023/10/19 08:58:09;;;;;;;0.00;0.00;;;;;;;16.09;100.00;97052.47;4925162;29;20028;-76
2023/10/19 09:01:09;;;;;;;0.00;0.00;;;;;;;16.38;100.00;97085.69;4896985;29;20095;-76
2023/10/19 09:03:35;;;;;;;0.00;0.00;;;;;;;16.15;100.00;97053.69;4877183;29;20403;-76
2023/10/19 09:06:05;;;;;;;0.00;0.00;;;;;;;16.25;100.00;97087.97;4907237;29;20039;-76
2023/10/19 09:08:40;;;;;;;0.00;0.00;;;;;;;16.13;100.00;97072.56;4926993;29;20035;-76
2023/10/19 09:11:12;;;;;;;0.00;0.00;;;;;;;16.23;100.00;97077.34;4918480;29;20032;-76
2023/10/19 09:13:48;;;;;;;0.00;0.00;;;;;;;16.29;100.00;97088.00;4912859;29;20029;-75
2023/10/19 09:16:18;;;;;;;0.00;0.00;;;;;;;16.51;100.00;97078.66;4930559;29;20027;-76
2023/10/19 09:18:47;;;;;;;0.00;0.00;;;;;;;16.93;100.00;97068.22;4909553;29;22775;-75
2023/10/19 09:21:24;;;;;;;0.00;0.00;;;;;;;17.17;100.00;97080.50;4896368;28;20118;-74
2023/10/19 09:23:55;;;;;;;0.00;0.00;;;;;;;17.53;100.00;97075.00;4902452;29;20463;-77
2023/10/19 09:26:22;;;;;;;0.00;0.00;;;;;;;17.68;100.00;97086.84;4915724;29;20054;-75
2023/10/19 09:28:55;;;;;;;0.00;0.00;;;;;;;17.53;100.00;97091.56;4906927;29;20036;-74
2023/10/19 09:31:22;;;;;;;0.00;0.00;;;;;;;17.63;100.00;97087.25;4918113;29;20028;-75
2023/10/19 09:33:53;;;;;;;0.00;0.00;;;;;;;18.26;100.00;97076.53;4908276;29;20043;-74
2023/10/19 09:36:28;;;;;;;0.00;0.00;;;;;;;18.56;99.15;97039.31;4921816;29;20166;-74
2023/10/19 09:39:02;;;;;;;0.00;0.00;;;;;;;19.75;91.72;97066.25;4920738;29;20040;-74
2023/10/19 09:41:29;;;;;;;0.00;0.00;;;;;;;19.33;89.62;97057.09;4915391;29;20032;-75
2023/10/19 09:44:02;;;;;;;0.00;0.00;;;;;;;19.45;91.92;97059.38;4914307;29;20027;-75
2023/10/19 09:46:31;;;;;;;0.00;0.00;;;;;;;19.59;90.78;97066.78;4922854;29;20052;-76
2023/10/19 09:48:58;;;;;;;0.00;0.00;;;;;;;19.63;89.23;97059.25;4925204;29;20024;-75
2023/10/19 09:51:34;;;;;;;0.00;0.00;;;;;;;18.90;88.90;97062.91;4911858;29;20659;-75
2023/10/19 09:54:09;;;;;;;0.00;0.00;;;;;;;18.30;92.81;97082.84;4921596;29;20047;-75
2023/10/19 09:56:47;;;;;;;0.00;0.00;;;;;;;18.02;93.74;97071.84;4916790;29;20021;-75
2023/10/19 09:59:29;;;;;;;0.00;0.00;;;;;;;17.69;96.04;97068.31;4920366;29;20039;-75
2023/10/19 10:02:12;;;;;;;0.00;0.00;;;;;;;17.71;96.04;97065.94;4922052;29;20028;-74
2023/10/19 10:04:39;;;;;;;0.00;0.00;;;;;;;17.71;96.77;97057.63;4915821;29;20037;-75
2023/10/19 10:07:07;;;;;;;0.00;0.00;;;;;;;17.98;95.77;97071.09;4906257;29;20044;-76
2023/10/19 10:09:39;;;;;;;0.00;0.00;;;;;;;18.20;93.02;97064.31;4906263;29;20058;-75
2023/10/19 10:12:26;;;;;;;0.00;0.00;;;;;;;18.52;91.06;97041.28;4924119;29;20115;-75
2023/10/19 10:15:01;;;;;;;0.00;0.00;;;;;;;18.49;89.99;97072.53;4899344;29;20036;-76
2023/10/19 10:17:27;;;;;;;0.00;0.00;;;;;;;18.09;91.07;97077.38;4921553;29;20036;-76
2023/10/19 10:20:18;;;;;;;0.00;0.00;;;;;;;17.61;94.14;97076.59;4919796;29;20091;-76
2023/10/19 10:22:45;;;;;;;0.00;0.00;;;;;;;17.30;96.32;97082.88;4932958;28;20052;-74
2023/10/19 10:25:29;;;;;;;0.00;0.00;;;;;;;16.87;100.00;97067.78;4900087;29;20643;-75
2023/10/19 10:27:55;;;;;;;0.00;0.00;;;;;;;16.69;100.00;97058.63;4910382;29;20020;-76
2023/10/19 10:30:20;;;;;;;0.00;0.00;;;;;;;16.64;100.00;97059.81;4914485;29;20095;-75
2023/10/19 10:32:50;;;;;;;0.00;0.00;;;;;;;16.57;100.00;97063.34;4914256;29;20032;-75
2023/10/19 10:35:40;;;;;;;0.00;0.00;;;;;;;16.22;100.00;97072.22;4922544;29;20047;-75
2023/10/19 10:38:11;;;;;;;0.00;0.00;;;;;;;15.92;100.00;97053.16;4907785;29;20028;-77
2023/10/19 10:40:44;;;;;;;0.00;0.00;;;;;;;16.03;100.00;97020.91;4911578;29;20163;-77
2023/10/19 10:43:11;;;;;;;0.00;0.00;;;;;;;16.37;100.00;97028.97;4924692;28;20028;-76
2023/10/19 10:45:36;;;;;;;0.00;0.00;;;;;;;16.21;100.00;97043.88;4917067;29;20032;-76
2023/10/19 10:48:11;;;;;;;0.00;0.00;;;;;;;16.12;100.00;97068.22;4908951;29;20054;-75
2023/10/19 10:50:37;;;;;;;0.00;0.00;;;;;;;16.33;100.00;97058.50;4912188;29;20024;-74
2023/10/19 10:53:04;;;;;;;0.00;0.00;;;;;;;16.51;100.00;97045.56;4905687;29;20779;-75
2023/10/19 10:55:30;;;;;;;0.00;0.00;;;;;;;16.36;100.00;97010.84;4921767;29;20040;-74
2023/10/19 10:57:57;;;;;;;0.00;0.00;;;;;;;16.50;100.00;97027.47;4899747;29;20039;-75
2023/10/19 11:00:32;;;;;;;0.00;0.00;;;;;;;16.33;100.00;97028.16;4887243;29;20567;-75
2023/10/19 11:03:04;;;;;;;0.00;0.00;;;;;;;16.43;100.00;97049.50;4914964;28;20657;-75
2023/10/19 11:05:31;;;;;;;0.00;0.00;;;;;;;16.68;100.00;97048.78;4905306;29;20083;-75
2023/10/19 11:08:20;;;;;;;0.00;0.00;;;;;;;16.57;100.00;97030.25;4902985;29;20743;-75
2023/10/19 11:10:54;;;;;;;0.00;0.00;;;;;;;16.21;100.00;97035.59;4908496;29;20506;-74
2023/10/19 11:13:24;;;;;;;0.00;0.00;;;;;;;16.15;100.00;97028.88;4904228;29;20032;-75
2023/10/19 11:15:53;;;;;;;0.00;0.00;;;;;;;16.17;100.00;97021.00;4906234;29;20402;-75
2023/10/19 11:18:35;;;;;;;0.00;0.00;;;;;;;16.18;100.00;97022.59;4902910;29;20259;-76
2023/10/19 11:21:04;;;;;;;0.00;0.00;;;;;;;16.03;100.00;97010.69;4906124;28;20044;-76
2023/10/19 11:23:44;;;;;;;0.00;0.00;;;;;;;16.06;100.00;97003.59;4901799;29;20111;-75
2023/10/19 11:26:15;;;;;;;0.00;0.00;;;;;;;16.04;100.00;96995.72;4904593;29;20052;-74
2023/10/19 11:28:50;;;;;;;0.00;0.00;;;;;;;16.42;100.00;97014.81;4905612;29;20461;-75
2023/10/19 11:53:42;;;;;;;0.00;0.00;;;;;;;15.92;100.00;97006.31;4748209;26;20048;-76
2023/10/19 11:56:10;;;;;;;0.00;0.00;;;;;;;15.97;100.00;96989.41;4924451;29;20406;-76
2023/10/19 11:58:42;;;;;;;0.00;0.00;;;;;;;16.42;100.00;96973.44;4911190;29;20086;-76
2023/10/19 12:01:13;;;;;;;0.00;0.00;;;;;;;17.01;100.00;96994.50;4923985;29;20028;-74
2023/10/19 12:03:40;;;;;;;0.00;0.00;;;;;;;16.55;100.00;96969.16;4930834;29;20082;-76
2023/10/19 12:06:06;;;;;;;0.00;0.00;;;;;;;16.50;100.00;96972.31;4932038;29;20024;-75
2023/10/19 12:08:58;;;;;;;0.00;0.00;;;;;;;16.37;100.00;96960.06;4922635;29;20031;-76
2023/10/19 12:11:24;;;;;;;0.00;0.00;;;;;;;17.00;100.00;96951.53;4923692;29;20122;-76
2023/10/19 12:14:14;;;;;;;0.00;0.00;;;;;;;17.22;100.00;96955.88;4914632;29;20265;-76
2023/10/19 12:16:40;;;;;;;0.00;0.00;;;;;;;16.98;100.00;96974.00;4909246;29;20031;-76